Terminal Aerodrome Forecast
Issued by NWS Duluth, MN

Home | Current Version | Previous Version | Text Only | Print | Product List | Glossary On
Versions: 1 2 3 4 5 6 7 8 9 10 11 12 13 14 15 16
998
FTUS43 KDLH 282337
TAFDLH
TAF
KDLH 282337Z 2900/2924 09010KT P6SM BKN100
     FM290400 VRB06KT P6SM BKN050
     FM291500 07010KT P6SM SCT050=

USA.gov is the U.S. government's official web portal to all federal, state and local government web resources and services.